createdAt,value
2018-07-20T00:00:32.737Z,1007.1
2018-07-20T00:01:34.392Z,1007.0
2018-07-20T00:02:36.113Z,1007.1
2018-07-20T00:03:37.776Z,1007.1
2018-07-20T00:04:39.456Z,1007.0
2018-07-20T00:05:41.203Z,1007.0
2018-07-20T00:06:42.902Z,1007.1
2018-07-20T00:07:44.549Z,1007.1
2018-07-20T00:08:46.207Z,1007.1
2018-07-20T00:09:47.860Z,1007.0
2018-07-20T00:10:49.519Z,1007.1
2018-07-20T00:11:51.230Z,1007.1
2018-07-20T00:12:52.904Z,1007.1
2018-07-20T00:13:54.594Z,1007.1
2018-07-20T00:14:56.327Z,1007.0
2018-07-20T00:15:57.980Z,1007.1
2018-07-20T00:16:59.651Z,1007.1
2018-07-20T00:18:01.398Z,1007.0
2018-07-20T00:19:03.085Z,1007.0
2018-07-20T00:20:04.790Z,1007.0
2018-07-20T00:21:06.438Z,1007.0
2018-07-20T00:22:08.160Z,1007.0
2018-07-20T00:23:09.872Z,1007.0
2018-07-20T00:24:11.626Z,1006.9
2018-07-20T00:25:13.301Z,1006.9
2018-07-20T00:26:14.976Z,1007.0
2018-07-20T00:27:16.738Z,1006.9
2018-07-20T00:28:18.431Z,1006.9
2018-07-20T00:29:20.164Z,1006.9
2018-07-20T00:30:21.945Z,1006.9
2018-07-20T00:31:23.644Z,1006.8
2018-07-20T00:32:25.309Z,1006.9
2018-07-20T00:33:27.027Z,1006.9
2018-07-20T00:34:28.659Z,1006.8
2018-07-20T00:35:30.232Z,1006.8
2018-07-20T00:36:32.004Z,1006.8
2018-07-20T00:37:33.742Z,1006.8
2018-07-20T00:38:35.474Z,1006.8
2018-07-20T00:39:37.255Z,1006.8
2018-07-20T00:40:38.953Z,1006.8
2018-07-20T00:41:40.614Z,1006.8
2018-07-20T00:42:42.347Z,1006.8
2018-07-20T00:43:44.024Z,1006.8
2018-07-20T00:44:45.734Z,1006.8
2018-07-20T00:45:47.393Z,1006.7
2018-07-20T00:46:49.127Z,1006.7
2018-07-20T00:47:50.849Z,1006.7
2018-07-20T00:48:52.638Z,1006.7
2018-07-20T00:49:54.939Z,1006.7
2018-07-20T00:50:56.649Z,1006.8
2018-07-20T00:51:58.302Z,1006.7
2018-07-20T00:53:00.023Z,1006.7
2018-07-20T00:54:01.713Z,1006.7
2018-07-20T00:55:03.334Z,1006.7
2018-07-20T00:56:05.053Z,1006.7
2018-07-20T00:57:06.724Z,1006.7
2018-07-20T00:58:08.422Z,1006.7
2018-07-20T00:59:10.157Z,1006.6
2018-07-20T01:00:11.858Z,1006.6
2018-07-20T01:01:13.538Z,1006.7
2018-07-20T01:02:15.192Z,1006.6
2018-07-20T01:03:16.834Z,1006.6
2018-07-20T01:04:18.542Z,1006.6
2018-07-20T01:05:20.165Z,1006.6
2018-07-20T01:06:21.864Z,1006.6
2018-07-20T01:07:23.562Z,1006.6
2018-07-20T01:08:25.298Z,1006.6
2018-07-20T01:09:26.917Z,1006.6
2018-07-20T01:10:28.532Z,1006.6
2018-07-20T01:11:30.334Z,1006.6
2018-07-20T01:12:32.044Z,1006.6
2018-07-20T01:13:33.724Z,1006.6
2018-07-20T01:14:35.509Z,1006.6
2018-07-20T01:15:37.238Z,1006.6
2018-07-20T01:16:38.856Z,1006.6
2018-07-20T01:17:40.587Z,1006.6
2018-07-20T01:18:42.340Z,1006.6
2018-07-20T01:19:44.085Z,1006.6
2018-07-20T01:20:45.828Z,1006.6
2018-07-20T01:21:47.499Z,1006.6
2018-07-20T01:22:50.097Z,1006.6
2018-07-20T01:23:51.795Z,1006.6
2018-07-20T01:24:53.489Z,1006.6
2018-07-20T01:25:55.127Z,1006.6
2018-07-20T01:26:56.767Z,1006.6
2018-07-20T01:27:58.490Z,1006.6
2018-07-20T01:29:00.187Z,1006.6
2018-07-20T01:30:01.874Z,1006.6
2018-07-20T01:31:03.629Z,1006.6
2018-07-20T01:32:05.326Z,1006.6
2018-07-20T01:33:07.066Z,1006.6
2018-07-20T01:34:08.774Z,1006.6
2018-07-20T01:35:10.406Z,1006.6
2018-07-20T01:36:12.116Z,1006.6
2018-07-20T01:37:13.816Z,1006.5
2018-07-20T01:38:15.515Z,1006.5
2018-07-20T01:39:17.196Z,1006.5
2018-07-20T01:40:18.929Z,1006.5
2018-07-20T01:41:20.682Z,1006.5
2018-07-20T01:42:22.379Z,1006.5
2018-07-20T01:43:24.049Z,1006.5
2018-07-20T01:44:25.679Z,1006.5
2018-07-20T01:45:27.350Z,1006.5
2018-07-20T01:46:29.028Z,1006.5
2018-07-20T01:47:30.725Z,1006.5
2018-07-20T01:48:32.366Z,1006.5
2018-07-20T01:49:34.120Z,1006.5
2018-07-20T01:50:35.865Z,1006.6
2018-07-20T01:51:37.574Z,1006.5
2018-07-20T01:52:39.296Z,1006.5
2018-07-20T01:53:40.937Z,1006.5
2018-07-20T01:54:42.645Z,1006.5
2018-07-20T01:55:44.412Z,1006.6
2018-07-20T01:56:45.986Z,1006.5
2018-07-20T01:57:47.612Z,1006.5
2018-07-20T01:58:49.250Z,1006.6
2018-07-20T01:59:51.006Z,1006.5
2018-07-20T02:00:52.660Z,1006.5
2018-07-20T02:01:54.319Z,1006.5
2018-07-20T02:02:56.089Z,1006.5
2018-07-20T02:03:57.696Z,1006.5
2018-07-20T02:04:59.426Z,1006.5
2018-07-20T02:06:01.144Z,1006.5
2018-07-20T02:07:02.873Z,1006.5
2018-07-20T02:08:04.589Z,1006.4
2018-07-20T02:09:06.231Z,1006.5
2018-07-20T02:10:07.931Z,1006.5
2018-07-20T02:11:09.681Z,1006.4
2018-07-20T02:12:11.361Z,1006.5
2018-07-20T02:13:13.079Z,1006.4
2018-07-20T02:14:14.787Z,1006.4
2018-07-20T02:15:16.482Z,1006.4
2018-07-20T02:16:18.188Z,1006.4
2018-07-20T02:17:19.824Z,1006.4
2018-07-20T02:18:21.511Z,1006.4
2018-07-20T02:19:23.221Z,1006.4
2018-07-20T02:20:24.852Z,1006.4
2018-07-20T02:21:26.577Z,1006.4
2018-07-20T02:22:28.246Z,1006.4
2018-07-20T02:23:29.987Z,1006.3
2018-07-20T02:24:31.704Z,1006.4
2018-07-20T02:25:33.491Z,1006.3
2018-07-20T02:26:35.187Z,1006.3
2018-07-20T02:27:36.911Z,1006.3
2018-07-20T02:28:38.656Z,1006.3
2018-07-20T02:29:40.394Z,1006.3
2018-07-20T02:30:42.033Z,1006.3
2018-07-20T02:31:43.756Z,1006.3
2018-07-20T02:32:45.560Z,1006.3
2018-07-20T02:33:47.188Z,1006.3
2018-07-20T02:34:48.912Z,1006.3
2018-07-20T02:35:50.567Z,1006.3
2018-07-20T02:36:52.202Z,1006.3
2018-07-20T02:37:53.913Z,1006.3
2018-07-20T02:38:55.654Z,1006.3
2018-07-20T02:39:57.346Z,1006.3
2018-07-20T02:40:59.020Z,1006.3
2018-07-20T02:42:00.795Z,1006.3
2018-07-20T02:43:02.546Z,1006.3
2018-07-20T02:44:04.140Z,1006.3
2018-07-20T02:45:05.818Z,1006.3
2018-07-20T02:46:07.536Z,1006.3
2018-07-20T02:47:09.220Z,1006.3
2018-07-20T02:48:10.908Z,1006.3
2018-07-20T02:49:12.578Z,1006.3
2018-07-20T02:50:14.308Z,1006.3
2018-07-20T02:51:16.035Z,1006.3
2018-07-20T02:52:17.693Z,1006.3
2018-07-20T02:53:19.361Z,1006.3
2018-07-20T02:54:21.090Z,1006.3
2018-07-20T02:55:22.714Z,1006.3
2018-07-20T02:56:24.418Z,1006.3
2018-07-20T02:57:26.125Z,1006.3
2018-07-20T02:58:27.872Z,1006.2
2018-07-20T02:59:29.595Z,1006.3
2018-07-20T03:00:31.363Z,1006.3
2018-07-20T03:01:33.041Z,1006.3
2018-07-20T03:02:34.830Z,1006.3
2018-07-20T03:03:36.502Z,1006.2
2018-07-20T03:04:38.242Z,1006.2
2018-07-20T03:05:39.985Z,1006.2
2018-07-20T03:06:41.655Z,1006.2
2018-07-20T03:07:43.346Z,1006.2
2018-07-20T03:08:44.966Z,1006.2
2018-07-20T03:09:46.605Z,1006.2
2018-07-20T03:10:48.287Z,1006.2
2018-07-20T03:11:49.962Z,1006.2
2018-07-20T03:12:51.662Z,1006.2
2018-07-20T03:13:53.364Z,1006.2
2018-07-20T03:14:55.121Z,1006.2
2018-07-20T03:15:56.713Z,1006.2
2018-07-20T03:16:58.357Z,1006.2
2018-07-20T03:17:59.978Z,1006.2
2018-07-20T03:19:01.628Z,1006.2
2018-07-20T03:20:03.338Z,1006.2
2018-07-20T03:21:05.007Z,1006.2
2018-07-20T03:22:06.697Z,1006.2
2018-07-20T03:23:08.327Z,1006.2
2018-07-20T03:24:09.980Z,1006.2
2018-07-20T03:25:11.649Z,1006.2
2018-07-20T03:26:13.373Z,1006.2
2018-07-20T03:27:15.116Z,1006.1
2018-07-20T03:28:16.904Z,1006.2
2018-07-20T03:29:18.599Z,1006.2
2018-07-20T03:30:20.314Z,1006.1
2018-07-20T03:31:22.015Z,1006.2
2018-07-20T03:32:23.742Z,1006.2
2018-07-20T03:33:25.431Z,1006.1
2018-07-20T03:34:27.124Z,1006.2
2018-07-20T03:35:28.842Z,1006.1
2018-07-20T03:36:30.567Z,1006.2
2018-07-20T03:37:32.282Z,1006.1
2018-07-20T03:38:33.999Z,1006.1
2018-07-20T03:39:35.746Z,1006.1
2018-07-20T03:40:37.491Z,1006.1
2018-07-20T03:41:39.206Z,1006.1
2018-07-20T03:42:40.831Z,1006.1
2018-07-20T03:43:42.523Z,1006.1
2018-07-20T03:44:44.175Z,1006.1
2018-07-20T03:45:45.953Z,1006.0
2018-07-20T03:46:47.670Z,1006.0
2018-07-20T03:47:49.327Z,1006.0
2018-07-20T03:48:51.025Z,1006.1
2018-07-20T03:49:52.679Z,1006.1
2018-07-20T03:50:54.332Z,1006.0
2018-07-20T03:51:56.058Z,1006.0
2018-07-20T03:52:57.863Z,1006.0
2018-07-20T03:53:59.625Z,1006.0
2018-07-20T03:55:01.311Z,1006.0
2018-07-20T03:56:03.048Z,1006.0
2018-07-20T03:57:04.768Z,1006.0
2018-07-20T03:58:06.480Z,1006.0
2018-07-20T03:59:08.157Z,1006.0
2018-07-20T04:00:09.862Z,1006.0
2018-07-20T04:01:11.525Z,1005.9
2018-07-20T04:02:13.528Z,1005.9
2018-07-20T04:03:15.241Z,1005.9
2018-07-20T04:04:16.873Z,1005.9
2018-07-20T04:05:18.570Z,1005.9
2018-07-20T04:06:20.336Z,1005.9
2018-07-20T04:07:22.021Z,1005.9
2018-07-20T04:08:23.880Z,1005.9
2018-07-20T04:09:25.814Z,1005.9
2018-07-20T04:10:27.649Z,1005.9
2018-07-20T04:11:29.314Z,1005.9
2018-07-20T04:12:31.231Z,1005.8
2018-07-20T04:13:32.880Z,1005.8
2018-07-20T04:14:34.551Z,1005.8
2018-07-20T04:15:36.233Z,1005.8
2018-07-20T04:16:37.908Z,1005.8
2018-07-20T04:17:39.648Z,1005.8
2018-07-20T04:18:41.462Z,1005.9
2018-07-20T04:19:43.184Z,1005.9
2018-07-20T04:20:45.071Z,1005.9
2018-07-20T04:21:46.748Z,1005.9
2018-07-20T04:22:48.540Z,1005.9
2018-07-20T04:23:50.246Z,1006.0
2018-07-20T04:24:51.990Z,1006.0
2018-07-20T04:25:53.777Z,1006.0
2018-07-20T04:26:56.131Z,1006.0
2018-07-20T04:27:57.885Z,1006.0
2018-07-20T04:28:59.514Z,1006.0
2018-07-20T04:30:01.229Z,1006.0
2018-07-20T04:31:02.975Z,1006.0
2018-07-20T04:32:04.673Z,1005.9
2018-07-20T04:33:06.377Z,1006.0
2018-07-20T04:34:08.139Z,1006.0
2018-07-20T04:35:09.832Z,1006.0
2018-07-20T04:36:11.670Z,1006.1
2018-07-20T04:37:13.396Z,1006.1
2018-07-20T04:38:15.122Z,1006.1
2018-07-20T04:39:16.935Z,1006.0
2018-07-20T04:40:18.734Z,1006.1
2018-07-20T04:41:20.533Z,1006.1
2018-07-20T04:42:22.159Z,1006.1
2018-07-20T04:43:23.847Z,1006.1
2018-07-20T04:44:26.166Z,1006.1
2018-07-20T04:45:27.922Z,1006.1
2018-07-20T04:46:29.689Z,1006.1
2018-07-20T04:47:31.401Z,1006.1
2018-07-20T04:48:33.076Z,1006.1
2018-07-20T04:49:34.763Z,1006.1
2018-07-20T04:50:36.527Z,1006.1
2018-07-20T04:51:38.277Z,1006.1
2018-07-20T04:52:40.036Z,1006.1
2018-07-20T04:53:41.751Z,1006.1
2018-07-20T04:54:43.483Z,1006.1
2018-07-20T04:55:45.285Z,1006.1
2018-07-20T04:56:47.131Z,1006.1
2018-07-20T04:57:48.808Z,1006.1
2018-07-20T04:58:50.582Z,1006.1
2018-07-20T04:59:52.298Z,1006.1
2018-07-20T05:00:54.087Z,1006.1
2018-07-20T05:01:55.799Z,1006.1
2018-07-20T05:02:57.624Z,1006.1
2018-07-20T05:03:59.301Z,1006.1
2018-07-20T05:05:00.997Z,1006.1
2018-07-20T05:06:02.746Z,1006.1
2018-07-20T05:07:04.468Z,1006.1
2018-07-20T05:08:06.248Z,1006.0
2018-07-20T05:09:07.989Z,1006.0
2018-07-20T05:10:09.736Z,1006.1
2018-07-20T05:11:11.428Z,1006.1
2018-07-20T05:12:13.159Z,1006.1
2018-07-20T05:13:14.901Z,1006.1
2018-07-20T05:14:16.631Z,1006.1
2018-07-20T05:15:18.404Z,1006.1
2018-07-20T05:16:20.079Z,1006.2
2018-07-20T05:17:21.876Z,1006.2
2018-07-20T05:18:23.605Z,1006.2
2018-07-20T05:19:25.430Z,1006.2
2018-07-20T05:20:27.169Z,1006.2
2018-07-20T05:21:28.932Z,1006.2
2018-07-20T05:22:30.756Z,1006.2
2018-07-20T05:23:32.536Z,1006.2
2018-07-20T05:24:34.281Z,1006.2
2018-07-20T05:25:36.068Z,1006.2
2018-07-20T05:26:37.888Z,1006.2
2018-07-20T05:27:39.657Z,1006.2
2018-07-20T05:28:41.422Z,1006.3
2018-07-20T05:29:43.097Z,1006.2
2018-07-20T05:30:44.717Z,1006.3
2018-07-20T05:31:46.516Z,1006.3
2018-07-20T05:32:48.328Z,1006.3
2018-07-20T05:33:50.095Z,1006.4
2018-07-20T05:34:51.893Z,1006.3
2018-07-20T05:35:53.698Z,1006.3
2018-07-20T05:36:55.443Z,1006.3
2018-07-20T05:37:57.094Z,1006.3
2018-07-20T05:38:58.911Z,1006.3
2018-07-20T05:40:00.594Z,1006.3
2018-07-20T05:41:02.311Z,1006.3
2018-07-20T05:42:04.104Z,1006.2
2018-07-20T05:43:05.903Z,1006.1
2018-07-20T05:44:07.823Z,1006.1
2018-07-20T05:45:09.378Z,1006.1
2018-07-20T05:46:11.155Z,1006.1
2018-07-20T05:47:12.858Z,1006.1
2018-07-20T05:48:14.544Z,1006.1
2018-07-20T05:49:16.205Z,1006.1
2018-07-20T05:50:17.945Z,1006.1
2018-07-20T05:51:19.646Z,1006.1
2018-07-20T05:52:21.435Z,1006.1
2018-07-20T05:53:23.314Z,1006.0
2018-07-20T05:54:24.954Z,1006.1
2018-07-20T05:55:26.673Z,1006.1
2018-07-20T05:56:28.447Z,1006.1
2018-07-20T05:57:30.104Z,1006.1
2018-07-20T05:58:31.843Z,1006.1
2018-07-20T05:59:33.596Z,1006.1
2018-07-20T06:00:35.403Z,1006.1
2018-07-20T06:01:37.194Z,1006.1
2018-07-20T06:02:38.922Z,1006.1
2018-07-20T06:03:40.711Z,1006.0
2018-07-20T06:04:42.359Z,1006.1
2018-07-20T06:05:44.152Z,1006.1
2018-07-20T06:06:45.924Z,1006.1
2018-07-20T06:07:47.753Z,1006.1
2018-07-20T06:08:49.530Z,1006.1
2018-07-20T06:09:51.266Z,1006.1
2018-07-20T06:10:52.908Z,1006.1
2018-07-20T06:11:54.578Z,1006.1
2018-07-20T06:12:56.374Z,1006.1
2018-07-20T06:13:58.169Z,1006.1
2018-07-20T06:14:59.897Z,1006.1
2018-07-20T06:16:01.547Z,1006.2
2018-07-20T06:17:03.327Z,1006.2
2018-07-20T06:18:05.126Z,1006.2
2018-07-20T06:19:06.876Z,1006.2
2018-07-20T06:20:08.648Z,1006.3
2018-07-20T06:21:10.506Z,1006.2
2018-07-20T06:22:12.244Z,1006.3
2018-07-20T06:23:14.063Z,1006.2
2018-07-20T06:24:15.834Z,1006.2
2018-07-20T06:25:17.454Z,1006.3
2018-07-20T06:26:19.263Z,1006.2
2018-07-20T06:27:20.960Z,1006.2
2018-07-20T06:28:22.713Z,1006.3
2018-07-20T06:29:24.396Z,1006.3
2018-07-20T06:30:26.120Z,1006.3
2018-07-20T06:31:27.904Z,1006.3
2018-07-20T06:32:29.702Z,1006.3
2018-07-20T06:33:31.508Z,1006.3
2018-07-20T06:34:33.331Z,1006.3
2018-07-20T06:35:35.189Z,1006.3
2018-07-20T06:36:37.092Z,1006.4
2018-07-20T06:37:38.976Z,1006.3
2018-07-20T06:38:40.720Z,1006.3
2018-07-20T06:39:42.400Z,1006.4
2018-07-20T06:40:44.099Z,1006.4
2018-07-20T06:41:45.862Z,1006.4
2018-07-20T06:42:47.679Z,1006.4
2018-07-20T06:43:49.621Z,1006.4
2018-07-20T06:44:51.275Z,1006.4
2018-07-20T06:45:52.956Z,1006.4
2018-07-20T06:46:54.836Z,1006.5
2018-07-20T06:47:56.644Z,1006.6
2018-07-20T06:48:58.427Z,1006.8
2018-07-20T06:50:00.214Z,1007.0
2018-07-20T06:51:02.032Z,1006.9
2018-07-20T06:52:03.872Z,1006.9
2018-07-20T06:53:05.683Z,1006.6
2018-07-20T06:54:07.542Z,1006.6
2018-07-20T06:55:09.365Z,1006.5
2018-07-20T06:56:11.119Z,1006.6
2018-07-20T06:57:12.820Z,1006.5
2018-07-20T06:58:14.599Z,1006.5
2018-07-20T06:59:16.284Z,1006.5
2018-07-20T07:00:18.135Z,1006.5
2018-07-20T07:01:19.991Z,1006.5
2018-07-20T07:02:21.751Z,1006.5
2018-07-20T07:03:23.473Z,1006.5
2018-07-20T07:04:25.370Z,1006.4
2018-07-20T07:05:27.128Z,1006.4
2018-07-20T07:06:28.814Z,1006.5
2018-07-20T07:07:30.604Z,1006.6
2018-07-20T07:08:32.430Z,1006.6
2018-07-20T07:09:34.243Z,1006.6
2018-07-20T07:10:35.985Z,1006.7
2018-07-20T07:11:37.931Z,1006.7
2018-07-20T07:12:39.768Z,1006.7
2018-07-20T07:13:41.486Z,1006.7
2018-07-20T07:14:43.297Z,1006.7
2018-07-20T07:15:45.051Z,1006.6
2018-07-20T07:16:46.806Z,1006.6
2018-07-20T07:17:48.480Z,1006.7
2018-07-20T07:18:50.349Z,1006.7
2018-07-20T07:19:52.200Z,1006.6
2018-07-20T07:20:54.006Z,1006.7
2018-07-20T07:21:55.761Z,1006.7
2018-07-20T07:22:57.555Z,1006.7
2018-07-20T07:23:59.249Z,1006.8
2018-07-20T07:25:01.046Z,1006.8
2018-07-20T07:26:02.914Z,1006.8
2018-07-20T07:27:04.574Z,1006.9
2018-07-20T07:28:06.287Z,1007.0
2018-07-20T07:29:08.131Z,1007.1
2018-07-20T07:30:09.848Z,1007.1
2018-07-20T07:31:11.704Z,1007.0
2018-07-20T07:32:13.628Z,1006.9
2018-07-20T07:33:15.428Z,1006.8
2018-07-20T07:34:17.146Z,1006.7
2018-07-20T07:35:18.977Z,1006.7
2018-07-20T07:36:20.783Z,1006.7
2018-07-20T07:37:22.443Z,1006.9
2018-07-20T07:38:24.231Z,1007.1
2018-07-20T07:39:26.135Z,1007.1
2018-07-20T07:40:28.014Z,1007.0
2018-07-20T07:41:29.793Z,1007.1
2018-07-20T07:42:31.556Z,1007.1
2018-07-20T07:43:33.349Z,1007.1
2018-07-20T07:44:35.102Z,1007.1
2018-07-20T07:45:36.942Z,1007.1
2018-07-20T07:46:38.728Z,1007.2
2018-07-20T07:47:40.470Z,1007.1
2018-07-20T07:48:42.315Z,1007.2
2018-07-20T07:49:44.266Z,1007.2
2018-07-20T07:50:45.952Z,1007.1
2018-07-20T07:51:47.783Z,1007.1
2018-07-20T07:52:49.594Z,1007.0
2018-07-20T07:53:51.295Z,1006.8
2018-07-20T07:54:53.373Z,1007.1
2018-07-20T07:55:54.978Z,1007.1
2018-07-20T07:56:56.767Z,1007.1
2018-07-20T07:57:58.614Z,1007.1
2018-07-20T07:59:00.516Z,1007.0
2018-07-20T08:00:02.315Z,1007.0
2018-07-20T08:01:04.089Z,1007.0
2018-07-20T08:02:05.830Z,1006.9
2018-07-20T08:03:07.567Z,1006.7
2018-07-20T08:04:09.387Z,1006.4
2018-07-20T08:05:11.345Z,1006.4
2018-07-20T08:06:13.178Z,1006.4
2018-07-20T08:07:15.088Z,1006.3
2018-07-20T08:08:16.976Z,1006.3
2018-07-20T08:09:18.705Z,1006.3
2018-07-20T08:10:20.705Z,1006.3
2018-07-20T08:11:22.493Z,1006.3
2018-07-20T08:12:24.435Z,1006.3
2018-07-20T08:13:26.204Z,1006.3
2018-07-20T08:14:27.925Z,1006.2
2018-07-20T08:15:29.672Z,1006.3
2018-07-20T08:16:31.474Z,1006.3
2018-07-20T08:17:33.164Z,1006.3
2018-07-20T08:18:34.877Z,1006.3
2018-07-20T08:19:36.708Z,1006.3
2018-07-20T08:20:38.524Z,1006.3
2018-07-20T08:21:40.360Z,1006.2
2018-07-20T08:22:42.057Z,1006.2
2018-07-20T08:23:43.859Z,1006.2
2018-07-20T08:24:45.595Z,1006.2
2018-07-20T08:25:47.697Z,1006.2
2018-07-20T08:26:49.508Z,1006.2
2018-07-20T08:27:51.233Z,1006.2
2018-07-20T08:28:53.000Z,1006.2
2018-07-20T08:29:54.820Z,1006.2
2018-07-20T08:30:56.782Z,1006.2
2018-07-20T08:31:58.827Z,1006.2
2018-07-20T08:33:00.637Z,1006.3
2018-07-20T08:34:02.705Z,1006.3
2018-07-20T08:35:04.423Z,1006.2
2018-07-20T08:36:06.242Z,1006.2
2018-07-20T08:37:07.952Z,1006.2
2018-07-20T08:38:09.744Z,1006.3
2018-07-20T08:39:11.572Z,1006.2
2018-07-20T08:40:13.378Z,1006.2
2018-07-20T08:41:15.134Z,1006.2
2018-07-20T08:42:17.120Z,1006.2
2018-07-20T08:43:18.872Z,1006.2
2018-07-20T08:44:20.859Z,1006.2
2018-07-20T08:45:22.662Z,1006.2
2018-07-20T08:46:24.526Z,1006.2
2018-07-20T08:47:26.314Z,1006.2
2018-07-20T08:48:28.336Z,1006.2
2018-07-20T08:49:30.183Z,1006.2
2018-07-20T08:50:31.904Z,1006.2
2018-07-20T08:51:33.764Z,1006.2
2018-07-20T08:52:35.701Z,1006.4
2018-07-20T08:53:37.504Z,1006.5
2018-07-20T08:54:39.363Z,1006.6
2018-07-20T08:55:41.213Z,1006.6
2018-07-20T08:56:43.038Z,1006.6
2018-07-20T08:57:45.142Z,1006.6
2018-07-20T08:58:46.930Z,1006.7
2018-07-20T08:59:48.712Z,1006.7
2018-07-20T09:00:50.448Z,1006.7
2018-07-20T09:01:52.223Z,1006.7
2018-07-20T09:02:54.038Z,1006.7
2018-07-20T09:03:56.593Z,1006.8
2018-07-20T09:04:58.360Z,1006.8
2018-07-20T09:06:00.252Z,1006.8
2018-07-20T09:07:02.062Z,1006.9
2018-07-20T09:08:03.916Z,1007.0
2018-07-20T09:09:05.779Z,1007.2
2018-07-20T09:10:07.585Z,1007.3
2018-07-20T09:11:09.441Z,1007.4
2018-07-20T09:12:11.206Z,1007.5
2018-07-20T09:13:13.016Z,1007.6
2018-07-20T09:14:14.815Z,1007.7
2018-07-20T09:15:16.942Z,1007.8
2018-07-20T09:16:18.822Z,1007.9
2018-07-20T09:17:20.860Z,1007.9
2018-07-20T09:18:22.708Z,1007.9
2018-07-20T09:19:24.572Z,1007.9
2018-07-20T09:20:26.642Z,1007.8
2018-07-20T09:21:28.693Z,1007.7
2018-07-20T09:22:30.479Z,1007.7
2018-07-20T09:23:32.224Z,1007.5
2018-07-20T09:24:33.939Z,1007.3
2018-07-20T09:25:35.872Z,1007.2
2018-07-20T09:26:37.745Z,1007.2
2018-07-20T09:27:39.606Z,1007.1
2018-07-20T09:28:41.372Z,1007.1
2018-07-20T09:29:43.139Z,1007.0
2018-07-20T09:30:44.956Z,1007.0
2018-07-20T09:31:46.821Z,1006.9
2018-07-20T09:32:48.615Z,1006.9
2018-07-20T09:33:50.749Z,1006.3
2018-07-20T09:34:52.567Z,1006.5
2018-07-20T09:35:54.435Z,1006.7
2018-07-20T09:36:56.248Z,1006.6
2018-07-20T09:37:58.030Z,1006.5
2018-07-20T09:39:00.044Z,1006.3
2018-07-20T09:40:01.932Z,1006.4
2018-07-20T09:41:03.881Z,1006.3
2018-07-20T09:42:05.652Z,1006.3
2018-07-20T09:43:07.468Z,1006.3
2018-07-20T09:44:09.296Z,1006.2
2018-07-20T09:45:11.052Z,1006.3
2018-07-20T09:46:12.832Z,1006.2
2018-07-20T09:47:14.827Z,1006.3
2018-07-20T09:48:16.607Z,1006.3
2018-07-20T09:49:18.374Z,1006.0
2018-07-20T09:50:20.104Z,1006.2
2018-07-20T09:51:22.053Z,1006.2
2018-07-20T09:52:24.059Z,1006.2
2018-07-20T09:53:26.574Z,1006.2
2018-07-20T09:54:28.384Z,1006.2
2018-07-20T09:55:30.184Z,1006.2
2018-07-20T09:56:31.984Z,1006.0
2018-07-20T09:57:33.811Z,1006.0
2018-07-20T09:58:35.616Z,1006.1
2018-07-20T09:59:37.418Z,1006.3
2018-07-20T10:00:39.179Z,1006.2
2018-07-20T10:01:40.910Z,1006.2
2018-07-20T10:02:42.766Z,1006.1
2018-07-20T10:03:44.629Z,1006.2
2018-07-20T10:04:46.886Z,1006.1
2018-07-20T10:05:48.751Z,1006.1
2018-07-20T10:06:50.627Z,1006.1
2018-07-20T10:07:52.514Z,1006.0
2018-07-20T10:08:54.628Z,1006.1
2018-07-20T10:09:56.469Z,1006.1
2018-07-20T10:10:58.315Z,1006.1
2018-07-20T10:12:01.242Z,1006.0
2018-07-20T10:13:02.921Z,1006.0
2018-07-20T10:14:04.662Z,1006.0
2018-07-20T10:15:06.525Z,1006.0
2018-07-20T10:16:08.375Z,1005.9
2018-07-20T10:17:10.589Z,1005.9
2018-07-20T10:18:12.833Z,1005.9
2018-07-20T10:19:14.655Z,1005.8
2018-07-20T10:20:16.568Z,1005.8
2018-07-20T10:21:18.746Z,1005.8
2018-07-20T10:22:20.422Z,1005.8
2018-07-20T10:23:22.496Z,1005.8
2018-07-20T10:24:24.439Z,1005.8
2018-07-20T10:25:26.465Z,1005.8
2018-07-20T10:26:28.370Z,1005.8
2018-07-20T10:27:30.172Z,1005.8
2018-07-20T10:28:32.211Z,1005.8
2018-07-20T10:29:34.290Z,1005.8
2018-07-20T10:30:36.168Z,1005.7
2018-07-20T10:31:37.924Z,1005.7
2018-07-20T10:32:39.824Z,1005.7
2018-07-20T10:33:41.809Z,1005.7
2018-07-20T10:34:43.712Z,1005.7
2018-07-20T10:35:45.617Z,1005.7
2018-07-20T10:36:47.408Z,1005.6
2018-07-20T10:37:49.257Z,1005.7
2018-07-20T10:38:51.035Z,1005.7
2018-07-20T10:39:52.876Z,1005.7
2018-07-20T10:40:54.682Z,1005.5
2018-07-20T10:41:56.939Z,1005.4
2018-07-20T10:42:58.716Z,1005.4
2018-07-20T10:44:00.464Z,1005.4
2018-07-20T10:45:01.939Z,1005.3
2018-07-20T10:46:03.638Z,1005.3
2018-07-20T10:47:05.450Z,1005.3
2018-07-20T10:48:07.286Z,1005.4
2018-07-20T10:49:09.028Z,1005.4
2018-07-20T10:50:10.899Z,1005.4
2018-07-20T10:51:12.648Z,1005.5
2018-07-20T10:52:14.574Z,1005.6
2018-07-20T10:53:16.310Z,1005.5
2018-07-20T10:54:18.010Z,1005.5
2018-07-20T10:55:19.737Z,1005.4
2018-07-20T10:56:21.551Z,1005.4
2018-07-20T10:57:23.862Z,1005.4
2018-07-20T10:58:25.873Z,1005.3
2018-07-20T10:59:27.665Z,1005.3
2018-07-20T11:00:29.386Z,1005.1
2018-07-20T11:01:31.525Z,1005.1
2018-07-20T11:02:33.542Z,1005.2
2018-07-20T11:03:35.442Z,1005.2
2018-07-20T11:04:37.148Z,1005.3
2018-07-20T11:05:39.044Z,1005.5
2018-07-20T11:06:40.727Z,1005.5
2018-07-20T11:07:42.505Z,1005.5
2018-07-20T11:08:44.319Z,1005.4
2018-07-20T11:09:46.225Z,1005.4
2018-07-20T11:10:47.971Z,1005.3
2018-07-20T11:11:50.005Z,1005.2
2018-07-20T11:12:51.728Z,1005.2
2018-07-20T11:13:53.520Z,1005.2
2018-07-20T11:14:55.295Z,1005.2
2018-07-20T11:15:57.248Z,1005.2
2018-07-20T11:16:59.298Z,1005.1
2018-07-20T11:18:01.119Z,1005.2
2018-07-20T11:19:02.885Z,1005.2
2018-07-20T11:20:04.662Z,1005.1
2018-07-20T11:21:06.440Z,1005.1
2018-07-20T11:22:08.218Z,1005.1
2018-07-20T11:23:09.962Z,1005.0
2018-07-20T11:24:11.697Z,1005.0
2018-07-20T11:25:14.357Z,1005.0
2018-07-20T11:26:16.353Z,1004.9
2018-07-20T11:27:18.097Z,1004.9
2018-07-20T11:28:20.095Z,1004.9
2018-07-20T11:29:21.727Z,1004.9
2018-07-20T11:30:23.577Z,1004.9
2018-07-20T11:31:25.409Z,1004.9
2018-07-20T11:32:27.190Z,1005.0
2018-07-20T11:33:29.023Z,1004.9
2018-07-20T11:34:30.775Z,1004.9
2018-07-20T11:35:32.806Z,1004.9
2018-07-20T11:36:34.552Z,1004.9
2018-07-20T11:37:36.398Z,1004.9
2018-07-20T11:38:38.152Z,1004.9
2018-07-20T11:39:39.862Z,1004.9
2018-07-20T11:40:42.722Z,1004.8
2018-07-20T11:41:44.705Z,1004.8
2018-07-20T11:42:46.520Z,1004.8
2018-07-20T11:43:48.218Z,1004.7
2018-07-20T11:44:49.909Z,1004.8
2018-07-20T11:45:51.657Z,1004.8
2018-07-20T11:46:53.346Z,1004.9
2018-07-20T11:47:55.121Z,1004.9
2018-07-20T11:48:57.026Z,1004.8
2018-07-20T11:49:58.791Z,1004.8
2018-07-20T11:51:00.579Z,1004.9
2018-07-20T11:52:02.394Z,1004.9
2018-07-20T11:53:04.185Z,1004.6
2018-07-20T11:54:05.957Z,1004.7
2018-07-20T11:55:07.657Z,1004.7
2018-07-20T11:56:09.541Z,1004.8
2018-07-20T11:57:11.446Z,1004.7
2018-07-20T11:58:13.438Z,1004.5
2018-07-20T11:59:15.201Z,1004.7
2018-07-20T12:00:17.220Z,1004.6
2018-07-20T12:01:18.920Z,1004.7
2018-07-20T12:02:20.630Z,1004.6
2018-07-20T12:03:22.700Z,1004.6
2018-07-20T12:04:24.444Z,1004.6
2018-07-20T12:05:26.180Z,1004.6
2018-07-20T12:06:28.045Z,1004.6
2018-07-20T12:07:29.895Z,1004.5
2018-07-20T12:08:31.679Z,1004.6
2018-07-20T12:09:33.531Z,1004.5
2018-07-20T12:10:35.269Z,1004.5
2018-07-20T12:11:37.143Z,1004.4
2018-07-20T12:12:38.896Z,1004.5
2018-07-20T12:13:40.942Z,1004.5
2018-07-20T12:14:42.757Z,1004.6
2018-07-20T12:15:44.478Z,1004.5
2018-07-20T12:16:46.228Z,1004.5
2018-07-20T12:17:47.971Z,1004.6
2018-07-20T12:18:49.740Z,1004.6
2018-07-20T12:19:51.476Z,1004.6
2018-07-20T12:20:53.138Z,1004.6
2018-07-20T12:21:54.966Z,1004.7
2018-07-20T12:22:56.707Z,1004.6
2018-07-20T12:23:58.472Z,1004.6
2018-07-20T12:25:00.310Z,1004.6
2018-07-20T12:26:03.411Z,1004.5
2018-07-20T12:27:05.238Z,1004.6
2018-07-20T12:28:07.043Z,1004.6
2018-07-20T12:29:08.765Z,1004.6
2018-07-20T12:30:10.529Z,1004.6
2018-07-20T12:31:12.237Z,1004.4
2018-07-20T12:32:13.934Z,1004.4
2018-07-20T12:33:15.716Z,1004.4
2018-07-20T12:34:17.436Z,1004.4
2018-07-20T12:35:19.159Z,1004.4
2018-07-20T12:36:20.836Z,1004.4
2018-07-20T12:37:22.637Z,1004.4
2018-07-20T12:38:24.334Z,1004.5
2018-07-20T12:39:26.087Z,1004.6
2018-07-20T12:40:27.785Z,1004.5
2018-07-20T12:41:29.439Z,1004.5
2018-07-20T12:42:31.214Z,1004.5
2018-07-20T12:43:32.823Z,1004.5
2018-07-20T12:44:34.997Z,1004.3
2018-07-20T12:45:37.300Z,1004.2
2018-07-20T12:46:39.109Z,1004.2
2018-07-20T12:47:40.656Z,1004.3
2018-07-20T12:48:42.367Z,1004.2
2018-07-20T12:49:44.660Z,1004.2
2018-07-20T12:50:46.615Z,1004.2